KBWD/BWD METAR and TAF weather

Enter ICAO airport designator
Station Type Date Time Source
KBWD METAR 2019/04/26 03:35 UTC NOAA

KBWD 260335Z AUTO 00000KT 10SM SCT050 17/15 A3006 RMK AO1


Station Type Date Time Source
KBWD Decoded METAR 2019/04/26 03:35 UTC NOAA

Brownwood, Brownwood Regional Airport, TX, United States (KBWD) 31-48N 098-57W
Apr 25, 2019 - 11:35 PM EDT / 2019.04.26 0335 UTC
Wind: Calm:0
Visibility: 10 mile(s):0
Sky conditions: partly cloudy
Temperature: 62 F (17 C)
Dew Point: 59 F (15 C)
Relative Humidity: 88%
Pressure (altimeter): 30.06 in. Hg (1017 hPa)
ob: KBWD 260335Z AUTO 00000KT 10SM SCT050 17/15 A3006 RMK AO1
cycle: 3

Station Type Date Time Source
KBWD TAF UTC NOAA

Error!

Example: see airport list